createdAt,value
2018-12-07T00:00:33.055Z,1.03
2018-12-07T00:10:38.787Z,1.00
2018-12-07T00:20:43.611Z,0.90
2018-12-07T00:30:49.020Z,1.03
2018-12-07T00:40:54.109Z,0.90
2018-12-07T00:50:58.945Z,0.83
2018-12-07T01:01:03.983Z,0.90
2018-12-07T01:11:08.674Z,1.00
2018-12-07T01:21:13.281Z,0.90
2018-12-07T01:31:18.114Z,0.70
2018-12-07T01:41:22.874Z,0.90
2018-12-07T01:51:27.627Z,0.70
2018-12-07T02:01:33.243Z,0.70
2018-12-07T02:11:37.903Z,0.80
2018-12-07T02:21:42.595Z,0.80
2018-12-07T02:31:47.352Z,0.60
2018-12-07T02:41:52.151Z,0.70
2018-12-07T02:51:56.837Z,0.60
2018-12-07T03:02:01.479Z,0.53
2018-12-07T03:12:06.331Z,0.63
2018-12-07T03:22:11.530Z,0.63
2018-12-07T03:32:16.326Z,0.70
2018-12-07T03:42:21.155Z,0.50
2018-12-07T03:52:26.769Z,0.70
2018-12-07T04:02:31.555Z,0.60
2018-12-07T04:12:36.174Z,0.53
2018-12-07T04:22:41.843Z,0.80
2018-12-07T04:32:46.614Z,0.50
2018-12-07T04:42:51.872Z,0.43
2018-12-07T04:52:56.453Z,0.40
2018-12-07T05:03:03.614Z,0.50
2018-12-07T05:13:08.368Z,0.50
2018-12-07T05:23:13.028Z,0.40
2018-12-07T05:33:18.693Z,0.37
2018-12-07T05:43:23.334Z,0.50
2018-12-07T05:53:27.892Z,0.60
2018-12-07T06:03:32.494Z,0.40
2018-12-07T06:13:37.263Z,0.50
2018-12-07T06:23:42.050Z,0.50
2018-12-07T06:33:46.681Z,0.40
2018-12-07T06:43:51.927Z,0.50
2018-12-07T06:53:56.626Z,0.50
2018-12-07T07:04:01.235Z,0.40
2018-12-07T07:14:06.271Z,0.30
2018-12-07T07:24:11.143Z,0.70
2018-12-07T07:34:15.903Z,0.90
2018-12-07T07:44:20.494Z,0.90
2018-12-07T07:54:25.263Z,1.57
2018-12-07T08:04:29.864Z,1.50
2018-12-07T08:14:34.523Z,1.27
2018-12-07T08:24:39.218Z,1.50
2018-12-07T08:34:44.908Z,1.50
2018-12-07T08:44:49.890Z,1.80
2018-12-07T08:54:54.661Z,2.20
2018-12-07T09:04:59.353Z,1.87
2018-12-07T09:15:04.630Z,2.57
2018-12-07T09:25:09.321Z,2.87
2018-12-07T09:35:14.164Z,3.20
2018-12-07T09:45:18.932Z,3.93
2018-12-07T09:55:23.625Z,2.70
2018-12-07T10:05:28.651Z,2.40
2018-12-07T10:15:33.290Z,2.50
2018-12-07T10:25:38.024Z,2.10
2018-12-07T10:35:43.001Z,1.40
2018-12-07T10:45:48.067Z,1.60
2018-12-07T10:55:53.635Z,2.43
2018-12-07T11:06:03.672Z,3.10
2018-12-07T11:16:25.203Z,3.10
2018-12-07T11:26:35.161Z,4.17
2018-12-07T11:36:39.921Z,4.30
2018-12-07T11:46:44.719Z,4.70
2018-12-07T11:56:50.265Z,4.07
2018-12-07T12:06:54.972Z,3.77
2018-12-07T12:16:59.761Z,3.40
2018-12-07T12:27:04.586Z,2.73
2018-12-07T12:37:09.168Z,2.50
2018-12-07T12:47:13.807Z,2.00
2018-12-07T12:57:18.454Z,1.57
2018-12-07T13:07:23.291Z,1.20
2018-12-07T13:17:28.200Z,1.30
2018-12-07T13:27:32.898Z,1.60
2018-12-07T13:37:37.707Z,1.10
2018-12-07T13:47:42.589Z,1.40
2018-12-07T13:57:47.647Z,1.50
2018-12-07T14:07:52.641Z,1.60
2018-12-07T14:17:57.629Z,1.43
2018-12-07T14:28:02.527Z,1.50
2018-12-07T14:38:07.777Z,1.67
2018-12-07T14:48:12.748Z,1.70
2018-12-07T14:58:17.600Z,1.50
2018-12-07T15:08:22.314Z,1.60
2018-12-07T15:18:27.472Z,1.77
2018-12-07T15:28:32.431Z,2.30
2018-12-07T15:38:37.260Z,2.63
2018-12-07T15:48:41.999Z,7.13
2018-12-07T15:58:47.191Z,4.87
2018-12-07T16:08:52.106Z,4.20
2018-12-07T16:18:56.934Z,4.10
2018-12-07T16:29:01.849Z,3.63
2018-12-07T16:39:08.519Z,3.60
2018-12-07T16:49:13.434Z,3.73
2018-12-07T16:59:18.294Z,3.63
2018-12-07T17:09:23.027Z,3.47
2018-12-07T17:19:28.033Z,3.23
2018-12-07T17:29:32.955Z,5.03
2018-12-07T17:39:38.049Z,4.40
2018-12-07T17:49:45.690Z,4.40
2018-12-07T17:59:50.568Z,6.17
2018-12-07T18:09:55.770Z,4.70
2018-12-07T18:20:01.174Z,4.70
2018-12-07T18:30:06.091Z,6.63
2018-12-07T18:40:11.007Z,5.93
2018-12-07T18:50:16.894Z,5.30
2018-12-07T19:00:23.548Z,5.23
2018-12-07T19:10:28.630Z,4.93
2018-12-07T19:20:33.835Z,5.10
2018-12-07T19:30:39.440Z,5.03
2018-12-07T19:40:44.703Z,4.53
2018-12-07T19:50:49.995Z,4.80
2018-12-07T20:00:55.701Z,4.50
2018-12-07T20:11:00.708Z,4.83
2018-12-07T20:21:05.556Z,4.40
2018-12-07T20:31:10.456Z,4.23
2018-12-07T20:41:15.182Z,4.13
2018-12-07T20:51:20.906Z,3.77
2018-12-07T21:01:25.973Z,3.87
2018-12-07T21:11:42.445Z,3.30
2018-12-07T21:21:47.271Z,3.67
2018-12-07T21:31:52.646Z,3.57
2018-12-07T21:41:57.622Z,4.10
2018-12-07T21:52:18.220Z,3.40
2018-12-07T22:02:23.153Z,3.43
2018-12-07T22:12:27.976Z,3.17
2018-12-07T22:22:32.812Z,2.90
2018-12-07T22:32:37.673Z,3.20
2018-12-07T22:42:42.751Z,3.07
2018-12-07T22:52:47.908Z,3.20
2018-12-07T23:02:53.324Z,2.63
2018-12-07T23:12:58.801Z,2.87
2018-12-07T23:23:03.887Z,2.70
2018-12-07T23:33:08.542Z,2.50
2018-12-07T23:43:13.298Z,2.70
2018-12-07T23:53:18.015Z,2.37
